sensor_id;sensor_type;location;lat;lon;timestamp;P1;durP1;ratioP1;P2;durP2;ratioP2
18711;SDS011;9485;49.386;8.674;2022-08-21T00:01:51;2.83;;;2.50;;
18711;SDS011;9485;49.386;8.674;2022-08-21T00:07:13;4.30;;;3.00;;
18711;SDS011;9485;49.386;8.674;2022-08-21T00:12:34;2.83;;;2.30;;
18711;SDS011;9485;49.386;8.674;2022-08-21T00:17:55;3.40;;;2.70;;
18711;SDS011;9485;49.386;8.674;2022-08-21T00:23:19;3.00;;;2.55;;
18711;SDS011;9485;49.386;8.674;2022-08-21T00:28:40;3.60;;;3.10;;
18711;SDS011;9485;49.386;8.674;2022-08-21T00:34:00;3.33;;;2.97;;
18711;SDS011;9485;49.386;8.674;2022-08-21T00:39:22;4.50;;;3.23;;
18711;SDS011;9485;49.386;8.674;2022-08-21T00:44:43;3.53;;;3.03;;
18711;SDS011;9485;49.386;8.674;2022-08-21T00:50:06;3.93;;;3.17;;
18711;SDS011;9485;49.386;8.674;2022-08-21T00:55:34;5.50;;;3.73;;
18711;SDS011;9485;49.386;8.674;2022-08-21T01:00:56;4.53;;;3.30;;
18711;SDS011;9485;49.386;8.674;2022-08-21T01:06:20;3.90;;;3.43;;
18711;SDS011;9485;49.386;8.674;2022-08-21T01:11:42;3.73;;;3.33;;
18711;SDS011;9485;49.386;8.674;2022-08-21T01:17:03;9.80;;;4.27;;
18711;SDS011;9485;49.386;8.674;2022-08-21T01:22:26;10.83;;;4.00;;
18711;SDS011;9485;49.386;8.674;2022-08-21T01:27:48;5.50;;;3.43;;
18711;SDS011;9485;49.386;8.674;2022-08-21T01:33:08;4.03;;;3.20;;
18711;SDS011;9485;49.386;8.674;2022-08-21T01:38:31;3.50;;;2.80;;
18711;SDS011;9485;49.386;8.674;2022-08-21T01:43:52;3.40;;;2.67;;
18711;SDS011;9485;49.386;8.674;2022-08-21T01:49:12;4.10;;;3.40;;
18711;SDS011;9485;49.386;8.674;2022-08-21T01:54:35;3.67;;;3.23;;
18711;SDS011;9485;49.386;8.674;2022-08-21T01:59:57;4.23;;;3.13;;
18711;SDS011;9485;49.386;8.674;2022-08-21T02:05:18;3.67;;;2.90;;
18711;SDS011;9485;49.386;8.674;2022-08-21T02:10:40;4.47;;;3.33;;
18711;SDS011;9485;49.386;8.674;2022-08-21T02:16:02;3.63;;;3.20;;
18711;SDS011;9485;49.386;8.674;2022-08-21T02:21:23;4.00;;;3.20;;
18711;SDS011;9485;49.386;8.674;2022-08-21T02:26:45;3.80;;;3.27;;
18711;SDS011;9485;49.386;8.674;2022-08-21T02:32:06;3.23;;;2.70;;
18711;SDS011;9485;49.386;8.674;2022-08-21T02:37:27;4.13;;;3.20;;
18711;SDS011;9485;49.386;8.674;2022-08-21T02:42:49;3.90;;;3.23;;
18711;SDS011;9485;49.386;8.674;2022-08-21T02:48:11;3.47;;;3.07;;
18711;SDS011;9485;49.386;8.674;2022-08-21T02:53:37;3.97;;;3.37;;
18711;SDS011;9485;49.386;8.674;2022-08-21T02:58:59;3.67;;;3.27;;
18711;SDS011;9485;49.386;8.674;2022-08-21T03:04:20;4.10;;;3.17;;
18711;SDS011;9485;49.386;8.674;2022-08-21T03:09:41;4.77;;;3.40;;
18711;SDS011;9485;49.386;8.674;2022-08-21T03:15:03;3.30;;;3.00;;
18711;SDS011;9485;49.386;8.674;2022-08-21T03:20:27;3.40;;;3.10;;
18711;SDS011;9485;49.386;8.674;2022-08-21T03:25:50;4.73;;;3.57;;
18711;SDS011;9485;49.386;8.674;2022-08-21T03:31:12;4.17;;;3.77;;
18711;SDS011;9485;49.386;8.674;2022-08-21T03:36:33;4.43;;;3.40;;
18711;SDS011;9485;49.386;8.674;2022-08-21T03:41:53;3.70;;;3.03;;
18711;SDS011;9485;49.386;8.674;2022-08-21T03:47:15;4.87;;;2.90;;
18711;SDS011;9485;49.386;8.674;2022-08-21T03:52:35;3.53;;;2.80;;
18711;SDS011;9485;49.386;8.674;2022-08-21T03:57:56;3.80;;;3.27;;
18711;SDS011;9485;49.386;8.674;2022-08-21T04:03:18;3.80;;;3.17;;
18711;SDS011;9485;49.386;8.674;2022-08-21T04:08:41;3.90;;;2.93;;
18711;SDS011;9485;49.386;8.674;2022-08-21T04:14:02;4.70;;;3.17;;
18711;SDS011;9485;49.386;8.674;2022-08-21T04:19:24;4.27;;;3.47;;
18711;SDS011;9485;49.386;8.674;2022-08-21T04:24:45;5.80;;;4.00;;
18711;SDS011;9485;49.386;8.674;2022-08-21T04:30:06;4.37;;;3.43;;
18711;SDS011;9485;49.386;8.674;2022-08-21T04:35:30;3.93;;;3.50;;
18711;SDS011;9485;49.386;8.674;2022-08-21T04:40:51;3.57;;;3.20;;
18711;SDS011;9485;49.386;8.674;2022-08-21T04:46:13;4.77;;;3.50;;
18711;SDS011;9485;49.386;8.674;2022-08-21T04:51:35;5.20;;;3.90;;
18711;SDS011;9485;49.386;8.674;2022-08-21T04:56:59;4.20;;;3.40;;
18711;SDS011;9485;49.386;8.674;2022-08-21T05:02:24;6.13;;;3.70;;
18711;SDS011;9485;49.386;8.674;2022-08-21T05:07:47;5.07;;;3.03;;
18711;SDS011;9485;49.386;8.674;2022-08-21T05:13:08;3.77;;;3.20;;
18711;SDS011;9485;49.386;8.674;2022-08-21T05:18:31;3.20;;;2.90;;
18711;SDS011;9485;49.386;8.674;2022-08-21T05:23:52;3.43;;;2.80;;
18711;SDS011;9485;49.386;8.674;2022-08-21T05:29:13;4.53;;;2.83;;
18711;SDS011;9485;49.386;8.674;2022-08-21T05:34:36;4.57;;;3.30;;
18711;SDS011;9485;49.386;8.674;2022-08-21T05:39:59;4.53;;;3.00;;
18711;SDS011;9485;49.386;8.674;2022-08-21T05:45:20;4.33;;;3.00;;
18711;SDS011;9485;49.386;8.674;2022-08-21T05:50:42;7.93;;;3.63;;
18711;SDS011;9485;49.386;8.674;2022-08-21T05:56:06;10.63;;;3.23;;
18711;SDS011;9485;49.386;8.674;2022-08-21T06:01:27;3.17;;;2.87;;
18711;SDS011;9485;49.386;8.674;2022-08-21T06:06:47;5.43;;;3.20;;
18711;SDS011;9485;49.386;8.674;2022-08-21T06:12:11;6.23;;;3.67;;
18711;SDS011;9485;49.386;8.674;2022-08-21T06:17:32;4.07;;;3.33;;
18711;SDS011;9485;49.386;8.674;2022-08-21T06:22:53;4.30;;;3.40;;
18711;SDS011;9485;49.386;8.674;2022-08-21T06:28:15;5.40;;;3.10;;
18711;SDS011;9485;49.386;8.674;2022-08-21T06:33:36;4.23;;;2.70;;
18711;SDS011;9485;49.386;8.674;2022-08-21T06:38:56;4.77;;;3.13;;
18711;SDS011;9485;49.386;8.674;2022-08-21T06:44:19;4.30;;;3.00;;
18711;SDS011;9485;49.386;8.674;2022-08-21T06:49:39;4.27;;;2.87;;
18711;SDS011;9485;49.386;8.674;2022-08-21T06:55:01;4.03;;;3.08;;
18711;SDS011;9485;49.386;8.674;2022-08-21T07:00:26;4.22;;;2.92;;
18711;SDS011;9485;49.386;8.674;2022-08-21T07:05:48;4.55;;;2.85;;
18711;SDS011;9485;49.386;8.674;2022-08-21T07:11:10;3.90;;;3.45;;
18711;SDS011;9485;49.386;8.674;2022-08-21T07:16:35;4.43;;;2.97;;
18711;SDS011;9485;49.386;8.674;2022-08-21T07:21:57;6.05;;;3.42;;
18711;SDS011;9485;49.386;8.674;2022-08-21T07:27:21;4.10;;;3.17;;
18711;SDS011;9485;49.386;8.674;2022-08-21T07:32:43;6.10;;;3.33;;
18711;SDS011;9485;49.386;8.674;2022-08-21T07:38:04;5.78;;;3.42;;
18711;SDS011;9485;49.386;8.674;2022-08-21T07:43:25;4.05;;;3.20;;
18711;SDS011;9485;49.386;8.674;2022-08-21T07:48:47;4.10;;;3.67;;
18711;SDS011;9485;49.386;8.674;2022-08-21T07:54:08;5.43;;;3.97;;
18711;SDS011;9485;49.386;8.674;2022-08-21T07:59:29;3.75;;;2.90;;
18711;SDS011;9485;49.386;8.674;2022-08-21T08:04:51;5.05;;;3.20;;
18711;SDS011;9485;49.386;8.674;2022-08-21T08:10:12;4.07;;;3.10;;
18711;SDS011;9485;49.386;8.674;2022-08-21T08:15:33;4.88;;;3.20;;
18711;SDS011;9485;49.386;8.674;2022-08-21T08:20:57;4.15;;;3.10;;
18711;SDS011;9485;49.386;8.674;2022-08-21T08:26:17;5.82;;;3.30;;
18711;SDS011;9485;49.386;8.674;2022-08-21T08:31:38;6.32;;;3.40;;
18711;SDS011;9485;49.386;8.674;2022-08-21T08:37:01;3.65;;;3.08;;
18711;SDS011;9485;49.386;8.674;2022-08-21T08:42:22;5.03;;;3.25;;
18711;SDS011;9485;49.386;8.674;2022-08-21T08:47:50;4.82;;;3.05;;
18711;SDS011;9485;49.386;8.674;2022-08-21T08:53:19;4.57;;;3.15;;
18711;SDS011;9485;49.386;8.674;2022-08-21T08:58:46;3.75;;;3.33;;
18711;SDS011;9485;49.386;8.674;2022-08-21T09:04:10;4.60;;;2.92;;
18711;SDS011;9485;49.386;8.674;2022-08-21T09:09:37;5.25;;;4.13;;
18711;SDS011;9485;49.386;8.674;2022-08-21T09:15:13;8.57;;;4.10;;
18711;SDS011;9485;49.386;8.674;2022-08-21T09:21:05;5.80;;;3.83;;
18711;SDS011;9485;49.386;8.674;2022-08-21T09:26:40;4.07;;;3.15;;
18711;SDS011;9485;49.386;8.674;2022-08-21T09:32:16;3.80;;;3.30;;
18711;SDS011;9485;49.386;8.674;2022-08-21T09:37:47;4.57;;;3.00;;
18711;SDS011;9485;49.386;8.674;2022-08-21T09:43:17;3.70;;;3.25;;
18711;SDS011;9485;49.386;8.674;2022-08-21T09:48:41;5.00;;;2.85;;
18711;SDS011;9485;49.386;8.674;2022-08-21T09:54:12;4.43;;;2.45;;
18711;SDS011;9485;49.386;8.674;2022-08-21T09:59:38;3.72;;;2.45;;
18711;SDS011;9485;49.386;8.674;2022-08-21T10:05:01;3.58;;;2.30;;
18711;SDS011;9485;49.386;8.674;2022-08-21T10:10:29;3.67;;;2.20;;
18711;SDS011;9485;49.386;8.674;2022-08-21T10:16:00;4.13;;;2.72;;
18711;SDS011;9485;49.386;8.674;2022-08-21T10:21:36;2.97;;;2.65;;
18711;SDS011;9485;49.386;8.674;2022-08-21T10:27:11;4.28;;;2.75;;
18711;SDS011;9485;49.386;8.674;2022-08-21T10:32:59;3.35;;;2.83;;
18711;SDS011;9485;49.386;8.674;2022-08-21T10:44:33;4.97;;;2.88;;
18711;SDS011;9485;49.386;8.674;2022-08-21T10:50:12;3.70;;;2.50;;
18711;SDS011;9485;49.386;8.674;2022-08-21T10:55:51;3.88;;;2.47;;
18711;SDS011;9485;49.386;8.674;2022-08-21T11:01:20;4.72;;;2.88;;
18711;SDS011;9485;49.386;8.674;2022-08-21T11:06:52;3.40;;;2.40;;
18711;SDS011;9485;49.386;8.674;2022-08-21T11:12:22;3.42;;;2.47;;
18711;SDS011;9485;49.386;8.674;2022-08-21T11:17:52;2.95;;;2.30;;
18711;SDS011;9485;49.386;8.674;2022-08-21T11:23:25;3.20;;;2.47;;
18711;SDS011;9485;49.386;8.674;2022-08-21T11:28:58;5.75;;;2.60;;
18711;SDS011;9485;49.386;8.674;2022-08-21T11:34:30;4.38;;;2.30;;
18711;SDS011;9485;49.386;8.674;2022-08-21T11:40:19;3.35;;;2.10;;
18711;SDS011;9485;49.386;8.674;2022-08-21T11:46:00;3.13;;;2.15;;
18711;SDS011;9485;49.386;8.674;2022-08-21T11:51:37;2.40;;;2.20;;
18711;SDS011;9485;49.386;8.674;2022-08-21T11:57:11;4.10;;;2.30;;
18711;SDS011;9485;49.386;8.674;2022-08-21T12:02:42;3.13;;;2.20;;
18711;SDS011;9485;49.386;8.674;2022-08-21T12:08:12;2.75;;;1.98;;
18711;SDS011;9485;49.386;8.674;2022-08-21T12:13:54;4.72;;;2.25;;
18711;SDS011;9485;49.386;8.674;2022-08-21T12:19:28;2.85;;;2.00;;
18711;SDS011;9485;49.386;8.674;2022-08-21T12:24:51;2.33;;;2.03;;
18711;SDS011;9485;49.386;8.674;2022-08-21T12:30:34;2.53;;;1.85;;
18711;SDS011;9485;49.386;8.674;2022-08-21T12:36:03;4.13;;;3.28;;
18711;SDS011;9485;49.386;8.674;2022-08-21T12:41:32;3.33;;;2.45;;
18711;SDS011;9485;49.386;8.674;2022-08-21T12:47:13;2.00;;;1.40;;
18711;SDS011;9485;49.386;8.674;2022-08-21T12:52:39;2.38;;;1.60;;
18711;SDS011;9485;49.386;8.674;2022-08-21T12:58:16;1.92;;;1.73;;
18711;SDS011;9485;49.386;8.674;2022-08-21T13:03:40;2.83;;;1.80;;
18711;SDS011;9485;49.386;8.674;2022-08-21T13:09:04;2.65;;;2.00;;
18711;SDS011;9485;49.386;8.674;2022-08-21T13:14:30;3.90;;;2.42;;
18711;SDS011;9485;49.386;8.674;2022-08-21T13:19:57;3.53;;;2.78;;
18711;SDS011;9485;49.386;8.674;2022-08-21T13:25:21;3.95;;;2.28;;
18711;SDS011;9485;49.386;8.674;2022-08-21T13:30:49;2.80;;;2.00;;
18711;SDS011;9485;49.386;8.674;2022-08-21T13:36:16;2.95;;;1.90;;
18711;SDS011;9485;49.386;8.674;2022-08-21T13:41:44;4.68;;;3.20;;
18711;SDS011;9485;49.386;8.674;2022-08-21T13:47:09;4.18;;;3.58;;
18711;SDS011;9485;49.386;8.674;2022-08-21T13:52:44;4.57;;;4.03;;
18711;SDS011;9485;49.386;8.674;2022-08-21T13:58:24;4.88;;;2.80;;
18711;SDS011;9485;49.386;8.674;2022-08-21T14:03:47;2.90;;;2.13;;
18711;SDS011;9485;49.386;8.674;2022-08-21T14:09:13;2.67;;;1.92;;
18711;SDS011;9485;49.386;8.674;2022-08-21T14:14:46;2.78;;;1.90;;
18711;SDS011;9485;49.386;8.674;2022-08-21T14:20:07;3.97;;;2.03;;
18711;SDS011;9485;49.386;8.674;2022-08-21T14:25:45;2.35;;;2.15;;
18711;SDS011;9485;49.386;8.674;2022-08-21T14:31:13;2.20;;;1.80;;
18711;SDS011;9485;49.386;8.674;2022-08-21T14:36:38;3.60;;;1.70;;
18711;SDS011;9485;49.386;8.674;2022-08-21T14:42:00;3.63;;;1.88;;
18711;SDS011;9485;49.386;8.674;2022-08-21T14:47:22;3.33;;;2.05;;
18711;SDS011;9485;49.386;8.674;2022-08-21T14:52:43;2.58;;;1.92;;
18711;SDS011;9485;49.386;8.674;2022-08-21T14:58:05;4.60;;;2.05;;
18711;SDS011;9485;49.386;8.674;2022-08-21T15:03:26;4.10;;;2.00;;
18711;SDS011;9485;49.386;8.674;2022-08-21T15:08:47;2.30;;;2.05;;
18711;SDS011;9485;49.386;8.674;2022-08-21T15:14:10;3.35;;;2.10;;
18711;SDS011;9485;49.386;8.674;2022-08-21T15:19:41;3.17;;;2.15;;
18711;SDS011;9485;49.386;8.674;2022-08-21T15:25:02;5.18;;;2.20;;
18711;SDS011;9485;49.386;8.674;2022-08-21T15:30:25;3.35;;;2.00;;
18711;SDS011;9485;49.386;8.674;2022-08-21T15:35:46;3.03;;;2.03;;
18711;SDS011;9485;49.386;8.674;2022-08-21T15:46:55;2.65;;;1.73;;
18711;SDS011;9485;49.386;8.674;2022-08-21T15:52:17;4.07;;;2.13;;
18711;SDS011;9485;49.386;8.674;2022-08-21T15:57:43;3.25;;;2.33;;
18711;SDS011;9485;49.386;8.674;2022-08-21T16:03:09;3.20;;;2.42;;
18711;SDS011;9485;49.386;8.674;2022-08-21T16:08:35;2.40;;;2.17;;
18711;SDS011;9485;49.386;8.674;2022-08-21T16:13:56;5.45;;;2.25;;
18711;SDS011;9485;49.386;8.674;2022-08-21T16:19:18;2.40;;;1.70;;
18711;SDS011;9485;49.386;8.674;2022-08-21T16:24:39;3.50;;;2.50;;
18711;SDS011;9485;49.386;8.674;2022-08-21T16:30:00;2.42;;;2.22;;
18711;SDS011;9485;49.386;8.674;2022-08-21T16:35:25;4.88;;;2.72;;
18711;SDS011;9485;49.386;8.674;2022-08-21T16:40:46;5.13;;;2.83;;
18711;SDS011;9485;49.386;8.674;2022-08-21T16:46:07;2.72;;;2.33;;
18711;SDS011;9485;49.386;8.674;2022-08-21T16:51:32;5.95;;;4.07;;
18711;SDS011;9485;49.386;8.674;2022-08-21T16:56:53;4.50;;;3.20;;
18711;SDS011;9485;49.386;8.674;2022-08-21T17:02:17;3.78;;;2.88;;
18711;SDS011;9485;49.386;8.674;2022-08-21T17:07:49;2.70;;;2.45;;
18711;SDS011;9485;49.386;8.674;2022-08-21T17:13:10;4.90;;;2.42;;
18711;SDS011;9485;49.386;8.674;2022-08-21T17:18:30;4.13;;;2.60;;
18711;SDS011;9485;49.386;8.674;2022-08-21T17:23:52;5.80;;;2.38;;
18711;SDS011;9485;49.386;8.674;2022-08-21T17:29:13;3.03;;;2.47;;
18711;SDS011;9485;49.386;8.674;2022-08-21T17:34:34;4.07;;;2.25;;
18711;SDS011;9485;49.386;8.674;2022-08-21T17:39:57;3.85;;;2.63;;
18711;SDS011;9485;49.386;8.674;2022-08-21T17:45:18;4.85;;;2.80;;
18711;SDS011;9485;49.386;8.674;2022-08-21T17:50:39;5.80;;;2.80;;
18711;SDS011;9485;49.386;8.674;2022-08-21T17:56:02;3.10;;;2.53;;
18711;SDS011;9485;49.386;8.674;2022-08-21T18:01:23;3.38;;;2.13;;
18711;SDS011;9485;49.386;8.674;2022-08-21T18:06:50;3.10;;;2.80;;
18711;SDS011;9485;49.386;8.674;2022-08-21T18:12:11;5.72;;;2.42;;
18711;SDS011;9485;49.386;8.674;2022-08-21T18:17:33;5.88;;;2.80;;
18711;SDS011;9485;49.386;8.674;2022-08-21T18:22:54;3.65;;;2.60;;
18711;SDS011;9485;49.386;8.674;2022-08-21T18:28:17;7.50;;;2.63;;
18711;SDS011;9485;49.386;8.674;2022-08-21T18:33:40;4.15;;;2.53;;
18711;SDS011;9485;49.386;8.674;2022-08-21T18:39:01;3.53;;;2.55;;
18711;SDS011;9485;49.386;8.674;2022-08-21T18:44:24;4.53;;;2.78;;
18711;SDS011;9485;49.386;8.674;2022-08-21T18:49:46;3.88;;;2.25;;
18711;SDS011;9485;49.386;8.674;2022-08-21T18:55:08;3.33;;;2.53;;
18711;SDS011;9485;49.386;8.674;2022-08-21T19:00:34;3.50;;;2.65;;
18711;SDS011;9485;49.386;8.674;2022-08-21T19:06:03;2.92;;;2.33;;
18711;SDS011;9485;49.386;8.674;2022-08-21T19:11:24;3.10;;;2.53;;
18711;SDS011;9485;49.386;8.674;2022-08-21T19:16:48;4.55;;;2.60;;
18711;SDS011;9485;49.386;8.674;2022-08-21T19:22:09;4.47;;;2.00;;
18711;SDS011;9485;49.386;8.674;2022-08-21T19:27:30;3.35;;;2.20;;
18711;SDS011;9485;49.386;8.674;2022-08-21T19:32:52;3.40;;;2.10;;
18711;SDS011;9485;49.386;8.674;2022-08-21T19:38:14;3.00;;;2.00;;
18711;SDS011;9485;49.386;8.674;2022-08-21T19:43:36;3.97;;;2.35;;
18711;SDS011;9485;49.386;8.674;2022-08-21T19:49:04;5.10;;;2.92;;
18711;SDS011;9485;49.386;8.674;2022-08-21T19:54:27;4.35;;;2.67;;
18711;SDS011;9485;49.386;8.674;2022-08-21T19:59:50;6.88;;;2.53;;
18711;SDS011;9485;49.386;8.674;2022-08-21T20:05:12;3.75;;;2.38;;
18711;SDS011;9485;49.386;8.674;2022-08-21T20:10:38;7.88;;;2.72;;
18711;SDS011;9485;49.386;8.674;2022-08-21T20:16:01;6.97;;;2.70;;
18711;SDS011;9485;49.386;8.674;2022-08-21T20:21:28;4.00;;;2.58;;
18711;SDS011;9485;49.386;8.674;2022-08-21T20:26:49;2.90;;;1.98;;
18711;SDS011;9485;49.386;8.674;2022-08-21T20:32:10;4.70;;;2.47;;
18711;SDS011;9485;49.386;8.674;2022-08-21T20:37:33;3.38;;;2.25;;
18711;SDS011;9485;49.386;8.674;2022-08-21T20:42:54;3.58;;;2.20;;
18711;SDS011;9485;49.386;8.674;2022-08-21T20:48:17;3.25;;;2.50;;
18711;SDS011;9485;49.386;8.674;2022-08-21T20:53:47;3.95;;;2.22;;
18711;SDS011;9485;49.386;8.674;2022-08-21T20:59:19;2.28;;;2.00;;
18711;SDS011;9485;49.386;8.674;2022-08-21T21:04:56;3.20;;;2.20;;
18711;SDS011;9485;49.386;8.674;2022-08-21T21:10:27;3.40;;;2.28;;
18711;SDS011;9485;49.386;8.674;2022-08-21T21:15:58;2.83;;;2.20;;
18711;SDS011;9485;49.386;8.674;2022-08-21T21:21:25;2.45;;;1.90;;
18711;SDS011;9485;49.386;8.674;2022-08-21T21:26:54;4.13;;;2.30;;
18711;SDS011;9485;49.386;8.674;2022-08-21T21:32:21;4.07;;;2.05;;
18711;SDS011;9485;49.386;8.674;2022-08-21T21:37:44;4.32;;;2.70;;
18711;SDS011;9485;49.386;8.674;2022-08-21T21:43:16;3.13;;;2.13;;
18711;SDS011;9485;49.386;8.674;2022-08-21T21:48:54;3.30;;;1.90;;
18711;SDS011;9485;49.386;8.674;2022-08-21T21:54:33;2.50;;;1.77;;
18711;SDS011;9485;49.386;8.674;2022-08-21T22:06:05;4.07;;;2.13;;
18711;SDS011;9485;49.386;8.674;2022-08-21T22:11:39;4.82;;;2.25;;
18711;SDS011;9485;49.386;8.674;2022-08-21T22:17:20;2.95;;;2.10;;
18711;SDS011;9485;49.386;8.674;2022-08-21T22:22:55;2.42;;;2.00;;
18711;SDS011;9485;49.386;8.674;2022-08-21T22:28:18;2.40;;;1.70;;
18711;SDS011;9485;49.386;8.674;2022-08-21T22:39:26;2.15;;;1.95;;
18711;SDS011;9485;49.386;8.674;2022-08-21T22:44:51;3.50;;;2.72;;
18711;SDS011;9485;49.386;8.674;2022-08-21T22:50:17;3.30;;;2.40;;
18711;SDS011;9485;49.386;8.674;2022-08-21T22:55:51;6.20;;;3.00;;
18711;SDS011;9485;49.386;8.674;2022-08-21T23:01:16;3.92;;;2.58;;
18711;SDS011;9485;49.386;8.674;2022-08-21T23:06:59;3.38;;;2.63;;
18711;SDS011;9485;49.386;8.674;2022-08-21T23:12:23;4.65;;;2.85;;
18711;SDS011;9485;49.386;8.674;2022-08-21T23:17:47;3.10;;;2.78;;
18711;SDS011;9485;49.386;8.674;2022-08-21T23:23:23;5.32;;;2.88;;
18711;SDS011;9485;49.386;8.674;2022-08-21T23:28:50;4.28;;;2.70;;
18711;SDS011;9485;49.386;8.674;2022-08-21T23:34:43;6.32;;;2.80;;
18711;SDS011;9485;49.386;8.674;2022-08-21T23:40:30;4.40;;;2.63;;
18711;SDS011;9485;49.386;8.674;2022-08-21T23:46:04;5.20;;;2.83;;
18711;SDS011;9485;49.386;8.674;2022-08-21T23:51:54;4.03;;;2.58;;
18711;SDS011;9485;49.386;8.674;2022-08-21T23:57:33;3.85;;;2.50;;
